createdAt,value
2023-04-24T00:03:51.677Z,96140.40
2023-04-24T00:13:54.935Z,96127.55
2023-04-24T00:23:58.017Z,96115.58
2023-04-24T00:34:01.813Z,96107.59
2023-04-24T00:44:05.097Z,96102.55
2023-04-24T00:54:08.169Z,96096.80
2023-04-24T01:04:13.049Z,96080.81
2023-04-24T01:14:16.421Z,96078.55
2023-04-24T01:24:20.551Z,96076.28
2023-04-24T01:34:23.763Z,96068.23
2023-04-24T01:44:27.399Z,96055.02
2023-04-24T01:54:30.527Z,96043.02
2023-04-24T02:04:34.387Z,96037.25
2023-04-24T02:14:37.529Z,96023.88
2023-04-24T02:24:40.693Z,96016.74
2023-04-24T02:34:43.976Z,96002.66
2023-04-24T02:44:47.031Z,95988.53
2023-04-24T02:54:50.237Z,95982.73
2023-04-24T03:04:53.855Z,95975.13
2023-04-24T03:14:57.512Z,95976.33
2023-04-24T03:25:00.616Z,95974.35
2023-04-24T03:35:04.544Z,95970.16
2023-04-24T03:45:09.609Z,95973.08
2023-04-24T03:55:14.883Z,95965.13
2023-04-24T04:05:22.043Z,95968.70
2023-04-24T04:15:25.320Z,95969.84
2023-04-24T04:25:28.857Z,95964.90
2023-04-24T04:35:32.512Z,95966.22
2023-04-24T04:45:36.078Z,95971.63
2023-04-24T04:55:55.117Z,95959.44
2023-04-24T05:06:04.020Z,95947.33
2023-04-24T05:16:09.691Z,95941.35
2023-04-24T05:26:14.900Z,95934.34
2023-04-24T05:36:18.265Z,95931.75
2023-04-24T05:46:21.692Z,95928.27
2023-04-24T05:56:25.183Z,95920.95
2023-04-24T06:06:30.013Z,95910.45
2023-04-24T06:16:33.918Z,95906.83
2023-04-24T06:26:42.514Z,95895.77
2023-04-24T06:36:45.956Z,95888.12
2023-04-24T06:46:49.096Z,95877.36
2023-04-24T06:56:53.384Z,95872.23
2023-04-24T07:06:57.141Z,95864.70
2023-04-24T07:17:00.297Z,95852.59
2023-04-24T07:27:04.368Z,95839.98
2023-04-24T07:37:07.586Z,95825.27
2023-04-24T07:47:14.313Z,95824.08
2023-04-24T07:57:17.906Z,95817.98
2023-04-24T08:17:38.055Z,95797.77
2023-04-24T08:27:41.339Z,95786.59
2023-04-24T08:37:44.418Z,95777.67
2023-04-24T08:47:48.944Z,95774.15
2023-04-24T08:57:54.002Z,95763.50
2023-04-24T09:07:58.025Z,95753.70
2023-04-24T09:18:02.468Z,95750.50
2023-04-24T09:28:07.999Z,95744.80
2023-04-24T09:38:11.931Z,95743.85
2023-04-24T09:48:14.980Z,95732.02
2023-04-24T09:58:18.463Z,95726.69
2023-04-24T10:08:23.982Z,95716.91
2023-04-24T10:18:28.684Z,95715.89
2023-04-24T10:28:33.100Z,95704.30
2023-04-24T10:38:38.321Z,95703.06
2023-04-24T10:48:44.801Z,95699.59
2023-04-24T10:58:53.483Z,95687.21
2023-04-24T11:09:05.324Z,95687.58
2023-04-24T11:19:20.465Z,95689.02
2023-04-24T11:30:15.678Z,95684.20
2023-04-24T11:40:57.664Z,95681.73
2023-04-24T11:51:31.376Z,95679.67
2023-04-24T12:01:50.286Z,95686.35
2023-04-24T12:11:58.053Z,95689.98
2023-04-24T12:22:07.676Z,95691.75
2023-04-24T12:32:20.975Z,95707.95
2023-04-24T12:42:32.003Z,95725.20
2023-04-24T12:52:35.640Z,95734.43
2023-04-24T13:02:39.679Z,95738.39
2023-04-24T13:12:46.735Z,95737.61
2023-04-24T13:22:50.405Z,95727.14
2023-04-24T13:32:53.463Z,95721.12
2023-04-24T13:42:56.761Z,95723.54
2023-04-24T13:53:02.689Z,95722.76
2023-04-24T14:03:06.630Z,95713.05
2023-04-24T14:13:10.539Z,95704.75
2023-04-24T14:23:14.061Z,95695.89
2023-04-24T14:33:18.631Z,95698.06
2023-04-24T14:43:21.920Z,95695.98
2023-04-24T14:53:26.520Z,95701.71
2023-04-24T15:03:30.740Z,95722.44
2023-04-24T15:13:34.426Z,95727.28
2023-04-24T15:23:37.517Z,95735.76
2023-04-24T15:33:40.701Z,95739.04
2023-04-24T15:43:44.377Z,95725.33
2023-04-24T15:53:47.843Z,95714.03
2023-04-24T16:03:51.682Z,95712.86
2023-04-24T16:13:55.396Z,95706.42
2023-04-24T16:23:58.945Z,95700.73
2023-04-24T16:34:02.204Z,95694.95
2023-04-24T16:44:05.406Z,95690.31
2023-04-24T16:54:09.327Z,95687.52
2023-04-24T17:04:14.129Z,95676.70
2023-04-24T17:14:17.859Z,95672.59
2023-04-24T17:24:20.866Z,95675.65
2023-04-24T17:34:24.747Z,95679.05
2023-04-24T17:44:27.925Z,95681.23
2023-04-24T17:54:30.983Z,95686.52
2023-04-24T18:04:34.583Z,95691.35
2023-04-24T18:14:38.205Z,95700.92
2023-04-24T18:24:41.247Z,95706.14
2023-04-24T18:34:44.301Z,95712.95
2023-04-24T18:44:48.265Z,95719.60
2023-04-24T18:54:51.589Z,95727.05
2023-04-24T19:04:54.625Z,95729.95
2023-04-24T19:14:58.360Z,95728.35
2023-04-24T19:25:01.971Z,95729.08
2023-04-24T19:35:06.945Z,95728.98
2023-04-24T19:45:12.501Z,95727.60
2023-04-24T19:55:15.853Z,95727.11
2023-04-24T20:05:21.923Z,95728.36
2023-04-24T20:15:25.149Z,95722.53
2023-04-24T20:25:28.876Z,95718.65
2023-04-24T20:35:32.617Z,95710.95
2023-04-24T20:45:35.892Z,95716.35
2023-04-24T20:55:38.958Z,95719.00
2023-04-24T21:05:42.029Z,95722.40
2023-04-24T21:15:45.440Z,95725.84
2023-04-24T21:25:48.545Z,95729.17
2023-04-24T21:35:52.575Z,95733.41
2023-04-24T21:45:56.810Z,95728.23
2023-04-24T21:56:01.281Z,95724.71
2023-04-24T22:06:04.906Z,95720.98
2023-04-24T22:16:08.308Z,95719.70
2023-04-24T22:26:11.728Z,95712.00
2023-04-24T22:36:17.627Z,95711.21
2023-04-24T22:46:21.296Z,95714.36
2023-04-24T22:56:27.902Z,95711.91
2023-04-24T23:06:31.701Z,95706.79
2023-04-24T23:16:47.815Z,95704.72
2023-04-24T23:26:54.453Z,95691.00
2023-04-24T23:36:58.202Z,95682.33
2023-04-24T23:47:01.919Z,95677.52
2023-04-24T23:57:04.938Z,95676.71
